createdAt,value
2022-11-23T00:00:44.200Z,34.33
2022-11-23T00:03:16.172Z,35.07
2022-11-23T00:05:43.451Z,35.00
2022-11-23T00:08:10.547Z,35.80
2022-11-23T00:10:37.929Z,36.07
2022-11-23T00:13:05.077Z,34.70
2022-11-23T00:15:32.843Z,38.50
2022-11-23T00:18:02.919Z,36.43
2022-11-23T00:20:30.038Z,38.60
2022-11-23T00:22:57.618Z,36.50
2022-11-23T00:25:24.833Z,36.97
2022-11-23T00:27:51.930Z,39.40
2022-11-23T00:30:19.200Z,38.43
2022-11-23T00:32:46.615Z,36.90
2022-11-23T00:35:13.951Z,38.80
2022-11-23T00:37:41.149Z,39.10
2022-11-23T00:40:09.528Z,37.57
2022-11-23T00:42:38.190Z,40.87
2022-11-23T00:45:06.138Z,41.17
2022-11-23T00:47:33.287Z,38.97
2022-11-23T00:50:00.521Z,37.80
2022-11-23T00:52:27.611Z,39.20
2022-11-23T00:54:54.863Z,39.50
2022-11-23T00:57:22.109Z,39.93
2022-11-23T00:59:49.408Z,40.03
2022-11-23T01:02:16.578Z,37.57
2022-11-23T01:04:44.839Z,38.23
2022-11-23T01:07:12.021Z,38.03
2022-11-23T01:09:40.684Z,35.03
2022-11-23T01:12:07.913Z,36.03
2022-11-23T01:14:36.333Z,37.67
2022-11-23T01:17:06.207Z,39.33
2022-11-23T01:19:35.629Z,37.23
2022-11-23T01:22:02.778Z,38.47
2022-11-23T01:24:31.038Z,37.50
2022-11-23T01:26:59.979Z,37.03
2022-11-23T01:29:29.543Z,35.00
2022-11-23T01:32:01.848Z,38.37
2022-11-23T01:34:29.044Z,38.63
2022-11-23T01:36:59.908Z,40.33
2022-11-23T01:39:28.628Z,36.93
2022-11-23T01:41:56.520Z,38.23
2022-11-23T01:44:27.252Z,40.17
2022-11-23T01:47:00.662Z,39.70
2022-11-23T01:49:33.794Z,38.20
2022-11-23T01:52:24.073Z,40.40
2022-11-23T01:54:55.919Z,37.83
2022-11-23T01:57:27.878Z,38.97
2022-11-23T01:59:56.486Z,39.70
2022-11-23T02:02:24.129Z,38.07
2022-11-23T02:04:55.217Z,39.07
2022-11-23T02:07:24.607Z,35.87
2022-11-23T02:09:53.149Z,39.30
2022-11-23T02:12:20.489Z,36.50
2022-11-23T02:14:47.738Z,38.93
2022-11-23T02:17:15.208Z,40.40
2022-11-23T02:20:05.292Z,38.17
2022-11-23T02:22:39.898Z,35.23
2022-11-23T02:25:36.449Z,40.83
2022-11-23T02:28:03.784Z,38.40
2022-11-23T02:30:32.782Z,39.13
2022-11-23T02:33:05.283Z,40.90
2022-11-23T02:35:33.978Z,39.90
2022-11-23T02:38:05.149Z,41.27
2022-11-23T02:40:35.392Z,44.90
2022-11-23T02:43:03.386Z,40.60
2022-11-23T02:45:50.918Z,43.30
2022-11-23T02:48:19.838Z,42.80
2022-11-23T02:50:47.627Z,46.03
2022-11-23T02:53:15.493Z,44.70
2022-11-23T02:55:44.459Z,47.03
2022-11-23T02:58:11.940Z,44.80
2022-11-23T03:00:40.378Z,40.20
2022-11-23T03:03:08.709Z,41.50
2022-11-23T03:05:36.023Z,42.10
2022-11-23T03:08:06.960Z,40.67
2022-11-23T03:10:35.950Z,40.70
2022-11-23T03:13:04.169Z,46.60
2022-11-23T03:15:35.574Z,44.10
2022-11-23T03:18:06.098Z,44.17
2022-11-23T03:20:33.994Z,42.57
2022-11-23T03:23:01.080Z,46.37
2022-11-23T03:25:28.374Z,41.50
2022-11-23T03:27:57.249Z,41.93
2022-11-23T03:30:25.528Z,43.27
2022-11-23T03:32:54.089Z,43.77
2022-11-23T03:35:22.409Z,44.33
2022-11-23T03:38:07.844Z,42.63
2022-11-23T03:40:35.858Z,43.37
2022-11-23T03:43:32.805Z,44.60
2022-11-23T03:46:03.599Z,39.67
2022-11-23T03:48:30.777Z,43.40
2022-11-23T03:50:59.003Z,41.80
2022-11-23T03:53:26.250Z,39.90
2022-11-23T03:55:55.874Z,44.20
2022-11-23T03:58:27.583Z,41.63
2022-11-23T04:00:56.324Z,43.27
2022-11-23T04:03:23.659Z,46.13
2022-11-23T04:06:10.188Z,42.17
2022-11-23T04:08:57.419Z,40.83
2022-11-23T04:11:51.710Z,45.50
2022-11-23T04:14:20.077Z,43.77
2022-11-23T04:16:49.321Z,42.70
2022-11-23T04:19:16.537Z,36.97
2022-11-23T04:21:43.735Z,38.23
2022-11-23T04:24:11.069Z,36.03
2022-11-23T04:26:40.590Z,38.90
2022-11-23T04:29:10.727Z,40.23
2022-11-23T04:31:42.987Z,41.23
2022-11-23T04:34:14.097Z,38.93
2022-11-23T04:36:42.438Z,37.27
2022-11-23T04:39:12.756Z,37.30
2022-11-23T04:42:02.897Z,40.07
2022-11-23T04:44:31.047Z,37.40
2022-11-23T04:47:03.307Z,37.13
2022-11-23T04:49:32.892Z,38.83
2022-11-23T04:52:01.316Z,36.73
2022-11-23T04:54:34.847Z,40.23
2022-11-23T04:57:06.797Z,40.70
2022-11-23T04:59:35.924Z,38.30
2022-11-23T05:02:03.237Z,41.07
2022-11-23T05:04:48.956Z,46.30
2022-11-23T05:07:18.592Z,47.50
2022-11-23T05:09:52.887Z,45.50
2022-11-23T05:12:21.817Z,47.40
2022-11-23T05:14:48.960Z,42.57
2022-11-23T05:17:21.787Z,42.20
2022-11-23T05:19:51.675Z,46.47
2022-11-23T05:22:22.099Z,44.63
2022-11-23T05:24:49.839Z,43.83
2022-11-23T05:27:20.657Z,43.60
2022-11-23T05:29:47.883Z,42.33
2022-11-23T05:32:15.243Z,43.17
2022-11-23T05:34:43.228Z,42.73
2022-11-23T05:37:13.199Z,41.33
2022-11-23T05:39:50.318Z,41.33
2022-11-23T05:42:18.863Z,37.67
2022-11-23T05:44:47.234Z,39.97
2022-11-23T05:47:20.873Z,44.87
2022-11-23T05:49:49.850Z,47.60
2022-11-23T05:52:26.405Z,43.83
2022-11-23T05:54:54.334Z,45.03
2022-11-23T05:57:22.624Z,46.17
2022-11-23T05:59:51.194Z,48.33
2022-11-23T06:02:22.919Z,37.23
2022-11-23T06:04:55.344Z,39.83
2022-11-23T06:07:33.181Z,46.50
2022-11-23T06:10:08.344Z,41.30
2022-11-23T06:12:39.838Z,40.13
2022-11-23T06:15:11.490Z,42.53
2022-11-23T06:17:40.068Z,46.43
2022-11-23T06:20:12.047Z,48.43
2022-11-23T06:22:44.001Z,44.53
2022-11-23T06:25:11.664Z,45.87
2022-11-23T06:28:00.149Z,41.80
2022-11-23T06:30:34.505Z,39.43
2022-11-23T06:33:05.783Z,45.47
2022-11-23T06:35:39.139Z,43.47
2022-11-23T06:38:06.352Z,68.80
2022-11-23T06:40:34.749Z,59.80
2022-11-23T06:43:03.923Z,52.77
2022-11-23T06:45:38.818Z,61.17
2022-11-23T06:48:10.077Z,52.97
2022-11-23T06:50:42.500Z,57.47
2022-11-23T06:53:13.823Z,53.83
2022-11-23T06:55:46.185Z,55.43
2022-11-23T06:58:16.153Z,56.07
2022-11-23T07:00:44.383Z,61.60
2022-11-23T07:03:25.228Z,64.40
2022-11-23T07:06:04.679Z,77.47
2022-11-23T07:08:33.297Z,54.40
2022-11-23T07:11:11.979Z,47.57
2022-11-23T07:13:40.608Z,46.60
2022-11-23T07:16:08.090Z,48.63
2022-11-23T07:18:35.331Z,48.30
2022-11-23T07:21:03.430Z,48.47
2022-11-23T07:23:30.797Z,52.07
2022-11-23T07:25:58.114Z,51.83
2022-11-23T07:28:25.369Z,48.03
2022-11-23T07:30:53.034Z,59.63
2022-11-23T07:33:21.754Z,42.67
2022-11-23T07:35:49.755Z,44.97
2022-11-23T07:38:16.973Z,41.43
2022-11-23T07:40:44.335Z,51.07
2022-11-23T07:43:27.752Z,38.73
2022-11-23T07:45:58.063Z,41.30
2022-11-23T07:48:25.516Z,39.30
2022-11-23T07:50:55.376Z,35.67
2022-11-23T07:53:23.891Z,34.60
2022-11-23T07:55:56.823Z,33.83
2022-11-23T07:58:24.240Z,32.40
2022-11-23T08:00:56.490Z,34.43
2022-11-23T08:03:28.442Z,29.83
2022-11-23T08:05:56.507Z,27.93
2022-11-23T08:08:24.028Z,29.13
2022-11-23T08:10:53.883Z,83.50
2022-11-23T08:13:22.835Z,44.37
2022-11-23T08:15:55.540Z,38.27
2022-11-23T08:18:24.411Z,28.30
2022-11-23T08:20:51.626Z,27.83
2022-11-23T08:23:19.812Z,29.67
2022-11-23T08:25:47.290Z,21.10
2022-11-23T08:28:16.427Z,62.80
2022-11-23T08:30:44.589Z,49.23
2022-11-23T08:33:13.148Z,28.43
2022-11-23T08:35:42.073Z,30.87
2022-11-23T08:38:10.427Z,24.03
2022-11-23T08:40:38.487Z,35.33
2022-11-23T08:43:07.238Z,25.57
2022-11-23T08:45:36.598Z,29.10
2022-11-23T08:48:05.541Z,31.20
2022-11-23T08:50:34.492Z,25.20
2022-11-23T08:53:02.697Z,24.83
2022-11-23T08:55:30.213Z,22.47
2022-11-23T08:57:58.825Z,20.20
2022-11-23T09:00:26.978Z,24.13
2022-11-23T09:02:54.596Z,20.43
2022-11-23T09:05:21.916Z,21.43
2022-11-23T09:07:49.184Z,19.43
2022-11-23T09:10:19.085Z,18.77
2022-11-23T09:12:47.846Z,18.63
2022-11-23T09:15:15.892Z,16.57
2022-11-23T09:17:43.247Z,16.93
2022-11-23T09:20:12.098Z,17.17
2022-11-23T09:22:39.638Z,14.97
2022-11-23T09:25:07.390Z,16.07
2022-11-23T09:27:34.733Z,14.63
2022-11-23T09:30:02.158Z,13.30
2022-11-23T09:32:29.366Z,13.87
2022-11-23T09:34:56.583Z,15.27
2022-11-23T09:37:23.839Z,13.13
2022-11-23T09:39:51.111Z,11.83
2022-11-23T09:42:36.775Z,13.13
2022-11-23T09:45:42.752Z,10.03
2022-11-23T09:48:13.265Z,11.70
2022-11-23T09:50:52.947Z,12.63
2022-11-23T09:53:31.578Z,9.60
2022-11-23T09:55:59.896Z,9.60
2022-11-23T09:58:33.316Z,10.40
2022-11-23T10:01:07.779Z,8.73
2022-11-23T10:03:42.697Z,7.97
2022-11-23T10:06:31.738Z,7.63
2022-11-23T10:09:17.717Z,9.53
2022-11-23T10:12:17.128Z,10.13
2022-11-23T10:15:05.349Z,10.03
2022-11-23T10:17:57.703Z,11.03
2022-11-23T10:20:43.806Z,9.23
2022-11-23T10:23:31.979Z,10.70
2022-11-23T10:26:00.438Z,8.50
2022-11-23T10:28:31.378Z,8.47
2022-11-23T10:31:05.676Z,8.63
2022-11-23T10:33:45.517Z,9.30
2022-11-23T10:36:13.996Z,8.83
2022-11-23T10:38:42.119Z,8.10
2022-11-23T10:41:12.779Z,6.63
2022-11-23T10:43:52.077Z,8.17
2022-11-23T10:46:26.211Z,7.23
2022-11-23T10:48:55.826Z,6.90
2022-11-23T10:51:32.859Z,13.50
2022-11-23T10:54:19.748Z,11.13
2022-11-23T10:56:51.940Z,8.50
2022-11-23T10:59:39.462Z,5.80
2022-11-23T11:02:17.836Z,6.20
2022-11-23T11:04:46.612Z,7.53
2022-11-23T11:07:21.083Z,10.40
2022-11-23T11:10:00.791Z,8.43
2022-11-23T11:12:30.472Z,9.53
2022-11-23T11:15:21.352Z,9.13
2022-11-23T11:17:57.114Z,11.93
2022-11-23T11:20:35.255Z,37.40
2022-11-23T11:23:15.177Z,13.03
2022-11-23T11:25:43.008Z,13.47
2022-11-23T11:28:51.749Z,10.43
2022-11-23T11:31:43.499Z,9.37
2022-11-23T11:34:47.875Z,7.70
2022-11-23T11:37:30.497Z,6.67
2022-11-23T11:39:59.228Z,6.00
2022-11-23T11:42:53.423Z,6.97
2022-11-23T11:45:36.397Z,6.90
2022-11-23T11:48:25.348Z,8.53
2022-11-23T11:50:52.748Z,6.87
2022-11-23T11:53:27.176Z,6.17
2022-11-23T11:55:58.952Z,14.23
2022-11-23T11:58:27.222Z,9.73
2022-11-23T12:01:07.708Z,9.40
2022-11-23T12:03:42.823Z,8.83
2022-11-23T12:06:27.030Z,7.37
2022-11-23T12:09:11.768Z,7.23
2022-11-23T12:11:39.110Z,6.30
2022-11-23T12:14:13.306Z,8.53
2022-11-23T12:17:30.781Z,8.63
2022-11-23T12:19:58.824Z,8.97
2022-11-23T12:23:19.735Z,9.57
2022-11-23T12:26:14.060Z,9.63
2022-11-23T12:28:59.779Z,9.90
2022-11-23T12:31:30.080Z,11.37
2022-11-23T12:34:22.055Z,9.37
2022-11-23T12:37:36.898Z,11.87
2022-11-23T12:40:04.559Z,10.90
2022-11-23T12:42:42.930Z,9.97
2022-11-23T12:45:20.597Z,8.73
2022-11-23T12:48:26.328Z,12.10
2022-11-23T12:51:32.127Z,9.43
2022-11-23T12:54:11.831Z,9.57
2022-11-23T12:56:56.558Z,8.13
2022-11-23T12:59:27.190Z,11.23
2022-11-23T13:02:03.429Z,7.93
2022-11-23T13:05:01.264Z,11.10
2022-11-23T13:07:51.233Z,8.23
2022-11-23T13:10:21.495Z,10.63
2022-11-23T13:13:16.274Z,8.83
2022-11-23T13:16:17.747Z,16.73
2022-11-23T13:19:04.680Z,13.20
2022-11-23T13:21:38.621Z,12.13
2022-11-23T13:24:29.492Z,11.20
2022-11-23T13:27:15.782Z,8.27
2022-11-23T13:29:50.406Z,10.97
2022-11-23T13:32:40.523Z,10.00
2022-11-23T13:35:24.097Z,11.60
2022-11-23T13:37:57.442Z,22.60
2022-11-23T13:40:27.323Z,10.13
2022-11-23T13:43:03.886Z,18.13
2022-11-23T13:45:38.055Z,9.83
2022-11-23T13:48:05.903Z,11.03
2022-11-23T13:50:34.050Z,9.20
2022-11-23T13:53:03.040Z,12.30
2022-11-23T13:55:40.932Z,13.93
2022-11-23T13:58:24.176Z,13.43
2022-11-23T14:00:56.600Z,11.30
2022-11-23T14:03:42.909Z,9.03
2022-11-23T14:06:37.456Z,11.97
2022-11-23T14:09:23.598Z,28.57
2022-11-23T14:12:12.494Z,12.07
2022-11-23T14:14:56.539Z,11.50
2022-11-23T14:18:20.854Z,12.93
2022-11-23T14:21:06.994Z,12.67
2022-11-23T14:24:14.216Z,12.00
2022-11-23T14:27:31.123Z,12.60
2022-11-23T14:30:14.185Z,10.57
2022-11-23T14:33:16.813Z,14.30
2022-11-23T14:35:48.713Z,13.97
2022-11-23T14:38:46.904Z,15.13
2022-11-23T14:41:24.056Z,12.03
2022-11-23T14:43:52.583Z,13.20
2022-11-23T14:46:24.902Z,12.13
2022-11-23T14:49:09.665Z,11.70
2022-11-23T14:51:45.883Z,12.60
2022-11-23T14:54:17.047Z,12.20
2022-11-23T14:56:49.799Z,12.23
2022-11-23T14:59:30.805Z,15.47
2022-11-23T15:02:02.308Z,11.80
2022-11-23T15:04:37.662Z,12.43
2022-11-23T15:07:44.122Z,11.63
2022-11-23T15:11:00.774Z,14.30
2022-11-23T15:13:30.964Z,13.43
2022-11-23T15:15:59.167Z,14.03
2022-11-23T15:18:30.284Z,12.90
2022-11-23T15:21:01.375Z,11.80
2022-11-23T15:23:36.103Z,12.43
2022-11-23T15:26:12.285Z,13.17
2022-11-23T15:28:40.440Z,12.27
2022-11-23T15:31:46.688Z,16.37
2022-11-23T15:34:29.105Z,14.80
2022-11-23T15:36:57.874Z,13.90
2022-11-23T15:39:25.885Z,16.33
2022-11-23T15:41:55.414Z,38.07
2022-11-23T15:44:30.436Z,33.67
2022-11-23T15:47:07.357Z,17.47
2022-11-23T15:49:40.733Z,16.23
2022-11-23T15:52:15.223Z,13.17
2022-11-23T15:54:43.774Z,13.40
2022-11-23T15:57:23.314Z,14.10
2022-11-23T16:00:00.823Z,13.50
2022-11-23T16:02:31.159Z,12.07
2022-11-23T16:05:15.162Z,12.40
2022-11-23T16:07:56.604Z,10.70
2022-11-23T16:10:27.832Z,13.57
2022-11-23T16:12:58.142Z,24.80
2022-11-23T16:15:38.338Z,13.20
2022-11-23T16:18:07.112Z,16.10
2022-11-23T16:20:34.341Z,27.83
2022-11-23T16:23:02.003Z,19.73
2022-11-23T16:25:34.402Z,14.80
2022-11-23T16:28:03.090Z,15.00
2022-11-23T16:30:42.212Z,17.30
2022-11-23T16:33:20.910Z,15.90
2022-11-23T16:35:49.380Z,20.47
2022-11-23T16:38:17.209Z,14.60
2022-11-23T16:40:45.729Z,14.73
2022-11-23T16:43:14.195Z,17.37
2022-11-23T16:45:46.278Z,15.93
2022-11-23T16:48:26.163Z,15.53
2022-11-23T16:50:55.291Z,27.67
2022-11-23T16:53:23.080Z,28.00
2022-11-23T16:55:55.962Z,22.37
2022-11-23T16:58:24.041Z,20.70
2022-11-23T17:00:52.057Z,18.37
2022-11-23T17:03:21.217Z,20.13
2022-11-23T17:05:50.117Z,20.53
2022-11-23T17:08:23.353Z,26.70
2022-11-23T17:10:51.988Z,21.80
2022-11-23T17:13:29.414Z,21.37
2022-11-23T17:15:57.228Z,26.60
2022-11-23T17:18:24.767Z,24.77
2022-11-23T17:20:52.017Z,30.33
2022-11-23T17:23:19.121Z,19.93
2022-11-23T17:25:47.139Z,16.67
2022-11-23T17:28:22.666Z,16.50
2022-11-23T17:30:50.619Z,17.13
2022-11-23T17:33:17.981Z,15.63
2022-11-23T17:35:45.951Z,14.47
2022-11-23T17:38:21.615Z,14.47
2022-11-23T17:40:48.873Z,14.73
2022-11-23T17:43:16.109Z,18.30
2022-11-23T17:45:44.924Z,17.13
2022-11-23T17:48:13.676Z,17.60
2022-11-23T17:50:40.979Z,17.23
2022-11-23T17:53:10.450Z,18.60
2022-11-23T17:55:38.762Z,18.37
2022-11-23T17:58:06.745Z,18.03
2022-11-23T18:00:36.813Z,16.87
2022-11-23T18:03:04.551Z,20.60
2022-11-23T18:05:32.705Z,19.07
2022-11-23T18:08:00.595Z,15.43
2022-11-23T18:10:28.957Z,16.37
2022-11-23T18:12:56.222Z,18.87
2022-11-23T18:15:24.772Z,17.43
2022-11-23T18:17:51.982Z,18.60
2022-11-23T18:20:20.351Z,25.57
2022-11-23T18:22:47.526Z,21.30
2022-11-23T18:25:14.849Z,20.47
2022-11-23T18:27:42.242Z,19.80
2022-11-23T18:30:09.734Z,21.07
2022-11-23T18:32:36.935Z,32.67
2022-11-23T18:35:05.246Z,26.30
2022-11-23T18:37:32.455Z,24.37
2022-11-23T18:39:59.736Z,24.13
2022-11-23T18:42:28.045Z,31.07
2022-11-23T18:44:55.202Z,35.53
2022-11-23T18:47:22.475Z,28.00
2022-11-23T18:49:49.749Z,24.63
2022-11-23T18:52:17.335Z,27.87
2022-11-23T18:54:44.585Z,29.97
2022-11-23T18:57:14.126Z,24.80
2022-11-23T18:59:57.545Z,27.00
2022-11-23T19:02:26.354Z,28.07
2022-11-23T19:04:53.528Z,22.67
2022-11-23T19:07:26.423Z,25.20
2022-11-23T19:09:54.235Z,22.60
2022-11-23T19:12:21.451Z,29.73
2022-11-23T19:14:50.074Z,49.70
2022-11-23T19:17:17.902Z,23.93
2022-11-23T19:19:45.341Z,17.70
2022-11-23T19:22:12.446Z,18.90
2022-11-23T19:24:40.971Z,19.63
2022-11-23T19:27:08.186Z,17.33
2022-11-23T19:29:35.807Z,17.43
2022-11-23T19:32:03.436Z,17.93
2022-11-23T19:34:30.653Z,17.20
2022-11-23T19:36:58.978Z,17.17
2022-11-23T19:39:26.243Z,19.60
2022-11-23T19:41:53.542Z,17.70
2022-11-23T19:44:20.736Z,16.57
2022-11-23T19:46:48.373Z,18.03
2022-11-23T19:49:15.981Z,16.50
2022-11-23T19:51:43.168Z,16.93
2022-11-23T19:54:10.540Z,15.53
2022-11-23T19:56:38.175Z,20.40
2022-11-23T19:59:06.303Z,21.23
2022-11-23T20:01:36.415Z,21.17
2022-11-23T20:04:09.387Z,22.33
2022-11-23T20:06:39.650Z,20.10
2022-11-23T20:09:13.259Z,21.60
2022-11-23T20:11:41.147Z,20.27
2022-11-23T20:14:10.835Z,17.53
2022-11-23T20:16:39.557Z,22.67
2022-11-23T20:19:09.151Z,20.60
2022-11-23T20:21:37.639Z,20.50
2022-11-23T20:24:14.246Z,20.43
2022-11-23T20:26:42.560Z,17.60
2022-11-23T20:29:10.350Z,19.67
2022-11-23T20:31:38.529Z,18.07
2022-11-23T20:34:07.766Z,22.17
2022-11-23T20:36:38.482Z,19.27
2022-11-23T20:39:08.550Z,18.00
2022-11-23T20:41:37.447Z,21.10
2022-11-23T20:44:12.533Z,24.20
2022-11-23T20:49:28.084Z,26.27
2022-11-23T20:51:55.305Z,24.73
2022-11-23T20:54:22.602Z,21.53
2022-11-23T20:56:49.760Z,20.27
2022-11-23T20:59:17.505Z,20.53
2022-11-23T21:01:44.713Z,19.87
2022-11-23T21:04:11.995Z,17.47
2022-11-23T21:06:40.215Z,19.50
2022-11-23T21:09:09.809Z,20.07
2022-11-23T21:11:55.953Z,19.63
2022-11-23T21:14:27.596Z,19.37
2022-11-23T21:16:59.193Z,19.30
2022-11-23T21:19:29.813Z,23.07
2022-11-23T21:21:59.202Z,20.00
2022-11-23T21:24:26.559Z,20.87
2022-11-23T21:26:54.090Z,22.40
2022-11-23T21:29:21.598Z,21.20
2022-11-23T21:31:50.057Z,24.57
2022-11-23T21:34:23.305Z,21.83
2022-11-23T21:36:51.037Z,21.67
2022-11-23T21:39:19.199Z,23.17
2022-11-23T21:41:48.725Z,20.10
2022-11-23T21:44:17.523Z,23.67
2022-11-23T21:46:45.504Z,21.23
2022-11-23T21:49:13.316Z,24.07
2022-11-23T21:51:42.865Z,24.63
2022-11-23T21:54:14.370Z,27.27
2022-11-23T21:56:43.121Z,24.70
2022-11-23T21:59:11.110Z,23.87
2022-11-23T22:01:39.558Z,25.30
2022-11-23T22:04:10.530Z,24.63
2022-11-23T22:06:39.983Z,24.97
2022-11-23T22:09:09.747Z,24.83
2022-11-23T22:11:41.408Z,28.97
2022-11-23T22:14:14.788Z,23.70
2022-11-23T22:16:49.921Z,25.07
2022-11-23T22:19:19.139Z,23.27
2022-11-23T22:21:47.403Z,22.70
2022-11-23T22:24:16.863Z,24.53
2022-11-23T22:26:46.307Z,25.63
2022-11-23T22:29:13.882Z,27.40
2022-11-23T22:31:41.836Z,25.93
2022-11-23T22:34:12.376Z,25.10
2022-11-23T22:36:39.704Z,25.73
2022-11-23T22:39:08.194Z,28.57
2022-11-23T22:41:39.450Z,32.93
2022-11-23T22:44:09.630Z,26.43
2022-11-23T22:46:40.103Z,25.33
2022-11-23T22:49:07.792Z,27.53
2022-11-23T22:51:34.974Z,27.27
2022-11-23T22:54:03.178Z,25.53
2022-11-23T22:56:32.040Z,28.27
2022-11-23T22:58:59.999Z,29.17
2022-11-23T23:01:29.856Z,25.27
2022-11-23T23:03:59.572Z,25.53
2022-11-23T23:06:29.536Z,24.87
2022-11-23T23:08:58.966Z,29.27
2022-11-23T23:11:28.541Z,24.47
2022-11-23T23:13:56.419Z,24.17
2022-11-23T23:16:24.904Z,22.33
2022-11-23T23:18:59.517Z,24.30
2022-11-23T23:21:28.909Z,24.60
2022-11-23T23:23:59.337Z,21.93
2022-11-23T23:26:27.808Z,24.60
2022-11-23T23:28:57.335Z,32.37
2022-11-23T23:31:25.654Z,24.37
2022-11-23T23:33:57.272Z,25.57
2022-11-23T23:36:25.192Z,27.33
2022-11-23T23:38:53.065Z,29.10
2022-11-23T23:41:20.347Z,23.97
2022-11-23T23:43:50.782Z,27.30
2022-11-23T23:46:19.943Z,24.47
2022-11-23T23:48:47.393Z,24.70
2022-11-23T23:51:17.186Z,23.73
2022-11-23T23:53:45.482Z,25.70
2022-11-23T23:56:22.415Z,21.27
2022-11-23T23:58:50.042Z,26.13
